Track Степанова Екатерина

Time Latitude Longitude Accuracy (66% radius in meters) Altitude (meters) Speed (km/hour) Bearing (degrees) Battery (%) GPS flag
09:29:52 60.370976 29.556469 8 62 0 193.18370056152 50 1 delete
09:29:40 60.370972 29.556476 6 50 0 339.32229614258 50 1 delete
09:29:33 60.370965 29.556430 8 54 0 339.32229614258 50 1 delete
09:29:28 60.370960 29.556372 6 62 0 339.32229614258 50 1 delete
09:29:16 60.370948 29.556344 8 88 0 339.32229614258 50 1 delete
09:29:15 60.370951 29.556343 8 86 0 339.32229614258 50 1 delete
09:28:52 60.370962 29.556306 8 72 0 339.32229614258 50 1 delete
09:28:40 60.371014 29.556316 8 98 0 221.88064575195 50 1 delete
09:28:27 60.370985 29.556331 6 83 0 221.88064575195 50 1 delete
09:28:13 60.370989 29.556319 4 95 0 221.88064575195 50 1 delete
09:28:00 60.370990 29.556309 6 94 0 221.88064575195 50 1 delete
09:27:57 60.370991 29.556302 8 99 0 221.88064575195 50 1 delete
09:27:47 60.370949 29.556312 8 84 0 221.88064575195 50 1 delete
09:27:36 60.370944 29.556310 4 81 0 74.731300354004 50 1 delete
09:27:34 60.370956 29.556326 6 82 0 74.731300354004 50 1 delete
09:27:21 60.370985 29.556365 8 91 0 74.731300354004 50 1 delete
09:27:09 60.370999 29.556412 6 85 0 231.61381530762 50 1 delete
09:27:04 60.370973 29.556381 6 80 0 231.61381530762 50 1 delete
09:26:56 60.370934 29.556278 8 79 0 231.61381530762 50 1 delete
09:26:43 60.370916 29.556337 12 75 0 49.800281524658 50 1 delete
09:26:33 60.370925 29.556365 8 73 0 171.88989257812 50 1 delete
09:26:30 60.370930 29.556347 8 70 0 171.88989257812 50 1 delete
09:26:18 60.370920 29.556321 6 70 0 223.98532104492 50 1 delete
09:26:04 60.370956 29.556264 6 69 0 29.680032730103 50 1 delete
09:25:51 60.370954 29.556236 6 70 0 29.680032730103 50 1 delete
09:25:38 60.370982 29.556247 6 71 0 201.77983093262 50 1 delete
09:25:25 60.370987 29.556258 6 69 0 201.77983093262 50 1 delete
09:25:12 60.370977 29.556313 6 71 0 201.77983093262 50 1 delete
09:25:00 60.370970 29.556311 6 73 0 201.77983093262 50 1 delete
09:24:49 60.370979 29.556292 12 81 0 201.77983093262 50 1 delete
09:24:36 60.370974 29.556330 6 73 0.053037822246552 237.41262817383 50 1 delete
09:24:27 60.370958 29.556296 6 84 0 205.15965270996 50 1 delete
09:24:24 60.370961 29.556220 6 79 0 205.15965270996 50 1 delete
09:24:17 60.370958 29.556193 8 73 0 205.15965270996 50 1 delete
09:24:12 60.370996 29.556258 8 74 0 205.15965270996 50 1 delete
09:24:11 60.370999 29.556273 8 74 0 205.15965270996 50 1 delete
09:23:58 60.371020 29.556369 8 86 0 205.15965270996 50 1 delete
09:23:46 60.371030 29.556334 8 78 0 205.15965270996 50 1 delete
09:23:33 60.371022 29.556362 6 80 0 205.15965270996 50 1 delete
09:23:20 60.371017 29.556357 8 82 0 205.15965270996 50 1 delete
09:23:07 60.371008 29.556357 6 80 0 205.15965270996 50 1 delete
09:22:54 60.371014 29.556328 6 79 0 205.15965270996 50 1 delete
09:22:42 60.371017 29.556332 6 78 0 205.15965270996 50 1 delete
09:22:29 60.370971 29.556339 8 82 0 205.15965270996 50 1 delete
09:22:17 60.370968 29.556357 6 83 0 205.15965270996 50 1 delete
09:22:04 60.370979 29.556391 6 85 0 205.15965270996 50 1 delete
09:21:52 60.370978 29.556397 4 87 0 205.15965270996 50 1 delete
09:21:39 60.371001 29.556419 6 90 0 205.15965270996 50 1 delete
09:21:27 60.371012 29.556411 4 90 0 205.15965270996 50 1 delete
09:21:14 60.370981 29.556374 8 89 0 205.15965270996 50 1 delete